createdAt,value
2023-01-03T00:01:59.186Z,8.89
2023-01-03T00:04:26.059Z,8.90
2023-01-03T00:06:53.341Z,8.25
2023-01-03T00:09:21.928Z,8.94
2023-01-03T00:11:51.523Z,8.65
2023-01-03T00:14:20.524Z,8.94
2023-01-03T00:16:50.797Z,9.28
2023-01-03T00:19:17.252Z,9.01
2023-01-03T00:21:43.612Z,9.29
2023-01-03T00:24:10.624Z,8.20
2023-01-03T00:26:37.595Z,8.57
2023-01-03T00:29:05.279Z,8.86
2023-01-03T00:31:31.704Z,9.16
2023-01-03T00:33:58.149Z,8.85
2023-01-03T00:36:24.546Z,8.47
2023-01-03T00:38:51.220Z,8.64
2023-01-03T00:41:18.780Z,8.36
2023-01-03T00:43:47.008Z,8.76
2023-01-03T00:46:17.573Z,8.64
2023-01-03T00:48:44.432Z,8.81
2023-01-03T00:51:13.895Z,8.76
2023-01-03T00:53:41.176Z,8.43
2023-01-03T00:56:09.103Z,8.37
2023-01-03T00:58:35.970Z,7.97
2023-01-03T01:01:05.305Z,7.80
2023-01-03T01:03:33.558Z,7.63
2023-01-03T01:05:59.977Z,7.88
2023-01-03T01:08:26.382Z,7.89
2023-01-03T01:10:52.735Z,8.03
2023-01-03T01:13:19.100Z,8.06
2023-01-03T01:15:45.515Z,8.18
2023-01-03T01:18:12.034Z,8.18
2023-01-03T01:20:40.462Z,7.85
2023-01-03T01:23:06.836Z,7.99
2023-01-03T01:25:33.952Z,7.99
2023-01-03T01:28:00.337Z,7.84
2023-01-03T01:30:27.007Z,7.91
2023-01-03T01:32:53.354Z,8.37
2023-01-03T01:35:19.705Z,8.34
2023-01-03T01:37:47.602Z,8.49
2023-01-03T01:40:14.025Z,8.45
2023-01-03T01:42:40.393Z,8.70
2023-01-03T01:45:13.484Z,8.64
2023-01-03T01:47:43.106Z,8.84
2023-01-03T01:50:22.180Z,8.95
2023-01-03T01:52:53.762Z,8.86
2023-01-03T01:55:23.392Z,8.24
2023-01-03T01:57:50.456Z,8.70
2023-01-03T02:00:17.300Z,8.37
2023-01-03T02:02:46.354Z,8.55
2023-01-03T02:05:14.310Z,7.96
2023-01-03T02:07:40.783Z,8.03
2023-01-03T02:10:08.877Z,8.05
2023-01-03T02:12:39.850Z,8.18
2023-01-03T02:15:16.299Z,8.31
2023-01-03T02:17:55.449Z,7.71
2023-01-03T02:20:32.893Z,8.56
2023-01-03T02:23:33.316Z,8.29
2023-01-03T02:26:31.177Z,8.34
2023-01-03T02:29:23.294Z,8.32
2023-01-03T02:31:57.606Z,7.87
2023-01-03T02:34:32.409Z,8.29
2023-01-03T02:37:08.118Z,8.28
2023-01-03T02:39:44.998Z,8.21
2023-01-03T02:42:16.414Z,8.21
2023-01-03T02:44:56.455Z,8.22
2023-01-03T02:47:26.890Z,8.55
2023-01-03T02:49:55.486Z,8.18
2023-01-03T02:52:26.282Z,8.05
2023-01-03T02:54:58.196Z,8.42
2023-01-03T02:57:29.853Z,8.14
2023-01-03T03:00:00.905Z,7.75
2023-01-03T03:02:32.173Z,8.07
2023-01-03T03:05:02.503Z,8.23
2023-01-03T03:07:33.542Z,8.22
2023-01-03T03:10:00.018Z,7.77
2023-01-03T03:12:29.355Z,8.32
2023-01-03T03:14:57.819Z,8.41
2023-01-03T03:17:30.426Z,8.59
2023-01-03T03:20:01.711Z,8.48
2023-01-03T03:22:36.300Z,8.73
2023-01-03T03:25:07.668Z,7.58
2023-01-03T03:27:37.399Z,7.72
2023-01-03T03:30:08.660Z,7.61
2023-01-03T03:32:39.461Z,8.36
2023-01-03T03:35:11.759Z,7.82
2023-01-03T03:37:40.532Z,7.96
2023-01-03T03:40:08.489Z,8.38
2023-01-03T03:42:44.074Z,7.52
2023-01-03T03:45:16.100Z,7.78
2023-01-03T03:47:51.347Z,8.26
2023-01-03T03:50:24.304Z,7.92
2023-01-03T03:52:58.173Z,7.95
2023-01-03T03:55:27.441Z,7.84
2023-01-03T03:57:58.200Z,7.71
2023-01-03T04:00:28.607Z,7.48
2023-01-03T04:02:58.172Z,8.06
2023-01-03T04:05:29.618Z,8.19
2023-01-03T04:07:56.019Z,8.41
2023-01-03T04:10:23.497Z,8.17
2023-01-03T04:12:51.391Z,7.22
2023-01-03T04:15:19.441Z,7.52
2023-01-03T04:17:45.885Z,7.51
2023-01-03T04:20:14.063Z,7.51
2023-01-03T04:22:40.549Z,7.94
2023-01-03T04:25:08.031Z,7.75
2023-01-03T04:27:34.505Z,7.75
2023-01-03T04:30:00.864Z,7.87
2023-01-03T04:32:27.224Z,7.84
2023-01-03T04:34:53.611Z,7.93
2023-01-03T04:37:21.321Z,7.99
2023-01-03T04:39:47.711Z,7.67
2023-01-03T04:42:14.136Z,7.92
2023-01-03T04:44:40.484Z,7.87
2023-01-03T04:47:06.826Z,8.12
2023-01-03T04:49:33.279Z,7.89
2023-01-03T04:51:59.648Z,8.07
2023-01-03T04:54:27.338Z,8.42
2023-01-03T04:56:53.931Z,8.63
2023-01-03T04:59:20.313Z,8.83
2023-01-03T05:01:47.314Z,8.94
2023-01-03T05:04:13.832Z,8.50
2023-01-03T05:06:40.270Z,8.66
2023-01-03T05:09:06.642Z,8.71
2023-01-03T05:11:34.410Z,8.81
2023-01-03T05:14:00.824Z,8.81
2023-01-03T05:16:27.276Z,8.98
2023-01-03T05:18:53.684Z,8.70
2023-01-03T05:21:22.263Z,9.29
2023-01-03T05:23:48.631Z,9.28
2023-01-03T05:26:17.136Z,9.52
2023-01-03T05:28:47.965Z,9.55
2023-01-03T05:31:14.384Z,8.97
2023-01-03T05:33:41.499Z,8.85
2023-01-03T05:36:09.359Z,8.98
2023-01-03T05:38:35.909Z,8.57
2023-01-03T05:41:02.303Z,8.39
2023-01-03T05:43:28.698Z,9.02
2023-01-03T05:45:56.540Z,9.11
2023-01-03T05:48:23.028Z,8.09
2023-01-03T05:50:49.845Z,8.09
2023-01-03T05:53:16.767Z,8.55
2023-01-03T05:55:43.231Z,8.35
2023-01-03T05:58:11.591Z,8.16
2023-01-03T06:00:38.032Z,8.65
2023-01-03T06:03:06.107Z,8.15
2023-01-03T06:05:32.517Z,8.33
2023-01-03T06:07:59.960Z,8.46
2023-01-03T06:10:26.410Z,8.63
2023-01-03T06:12:52.968Z,8.19
2023-01-03T06:15:19.996Z,8.38
2023-01-03T06:17:46.386Z,8.22
2023-01-03T06:20:14.119Z,7.69
2023-01-03T06:22:40.542Z,7.76
2023-01-03T06:25:07.345Z,8.11
2023-01-03T06:27:33.703Z,8.22
2023-01-03T06:30:00.201Z,7.85
2023-01-03T06:32:26.586Z,7.52
2023-01-03T06:34:52.928Z,7.92
2023-01-03T06:37:20.669Z,8.10
2023-01-03T06:39:47.031Z,8.08
2023-01-03T06:42:13.410Z,7.46
2023-01-03T06:44:39.775Z,7.83
2023-01-03T06:47:06.135Z,7.57
2023-01-03T06:49:32.711Z,7.69
2023-01-03T06:51:59.230Z,7.82
2023-01-03T06:54:28.995Z,7.79
2023-01-03T06:56:56.932Z,7.54
2023-01-03T06:59:23.983Z,8.20
2023-01-03T07:01:52.533Z,8.04
2023-01-03T07:04:20.670Z,7.98
2023-01-03T07:06:47.196Z,8.33
2023-01-03T07:09:14.230Z,8.04
2023-01-03T07:11:42.145Z,8.15
2023-01-03T07:14:10.363Z,8.43
2023-01-03T07:16:38.662Z,8.43
2023-01-03T07:19:07.052Z,8.61
2023-01-03T07:21:35.041Z,8.56
2023-01-03T07:24:03.026Z,8.51
2023-01-03T07:26:30.581Z,8.75
2023-01-03T07:28:58.999Z,8.65
2023-01-03T07:31:25.725Z,8.68
2023-01-03T07:33:52.416Z,8.80
2023-01-03T07:36:21.128Z,8.67
2023-01-03T07:38:48.303Z,8.20
2023-01-03T07:41:15.468Z,8.25
2023-01-03T07:43:44.057Z,8.88
2023-01-03T07:46:13.877Z,8.91
2023-01-03T07:48:41.588Z,8.61
2023-01-03T07:51:09.818Z,8.27
2023-01-03T07:53:36.688Z,8.44
2023-01-03T07:56:10.749Z,8.51
2023-01-03T07:58:40.969Z,8.80
2023-01-03T08:01:08.923Z,8.52
2023-01-03T08:03:37.568Z,8.61
2023-01-03T08:06:06.845Z,8.53
2023-01-03T08:08:33.740Z,8.38
2023-01-03T08:11:00.492Z,7.95
2023-01-03T08:13:27.097Z,8.06
2023-01-03T08:15:55.560Z,7.53
2023-01-03T08:18:23.940Z,8.23
2023-01-03T08:20:52.595Z,8.07
2023-01-03T08:23:18.950Z,8.11
2023-01-03T08:25:45.345Z,8.41
2023-01-03T08:28:11.736Z,7.92
2023-01-03T08:30:41.519Z,7.92
2023-01-03T08:33:10.726Z,7.93
2023-01-03T08:35:39.327Z,7.99
2023-01-03T08:38:11.294Z,8.20
2023-01-03T08:40:42.335Z,7.62
2023-01-03T08:43:10.738Z,7.94
2023-01-03T08:45:38.238Z,7.68
2023-01-03T08:48:06.224Z,8.13
2023-01-03T08:50:32.771Z,7.93
2023-01-03T08:52:59.142Z,8.19
2023-01-03T08:55:26.965Z,8.07
2023-01-03T08:57:53.370Z,8.17
2023-01-03T09:00:20.234Z,7.87
2023-01-03T09:02:46.836Z,7.87
2023-01-03T09:05:13.500Z,7.69
2023-01-03T09:07:39.853Z,7.39
2023-01-03T09:10:06.976Z,7.74
2023-01-03T09:12:34.798Z,8.29
2023-01-03T09:15:01.178Z,8.51
2023-01-03T09:17:28.873Z,7.64
2023-01-03T09:19:55.220Z,7.86
2023-01-03T09:22:21.598Z,8.13
2023-01-03T09:24:47.983Z,8.52
2023-01-03T09:27:14.370Z,8.39
2023-01-03T09:29:42.126Z,8.10
2023-01-03T09:32:08.542Z,7.90
2023-01-03T09:34:34.996Z,8.46
2023-01-03T09:37:01.423Z,8.12
2023-01-03T09:39:28.199Z,8.28
2023-01-03T09:41:56.923Z,7.60
2023-01-03T09:44:23.317Z,7.93
2023-01-03T09:46:51.059Z,8.43
2023-01-03T09:49:17.520Z,8.17
2023-01-03T09:51:46.315Z,8.15
2023-01-03T09:54:16.353Z,8.25
2023-01-03T09:56:42.777Z,8.19
2023-01-03T09:59:11.924Z,8.46
2023-01-03T10:01:49.994Z,7.89
2023-01-03T10:04:47.226Z,7.54
2023-01-03T10:07:26.739Z,8.12
2023-01-03T10:10:01.003Z,8.39
2023-01-03T10:12:37.129Z,8.39
2023-01-03T10:15:18.500Z,8.63
2023-01-03T10:18:05.733Z,8.79
2023-01-03T10:20:45.760Z,8.15
2023-01-03T10:23:12.701Z,8.43
2023-01-03T10:25:42.676Z,8.57
2023-01-03T10:28:15.829Z,8.59
2023-01-03T10:31:08.710Z,8.09
2023-01-03T10:33:39.168Z,8.49
2023-01-03T10:36:07.956Z,8.14
2023-01-03T10:38:42.601Z,8.19
2023-01-03T10:41:16.196Z,8.09
2023-01-03T10:43:44.614Z,8.00
2023-01-03T10:46:15.705Z,8.26
2023-01-03T10:51:42.262Z,8.73
2023-01-03T10:54:12.780Z,8.58
2023-01-03T10:56:39.232Z,9.00
2023-01-03T10:59:15.841Z,8.49
2023-01-03T11:01:56.600Z,8.75
2023-01-03T11:04:23.187Z,8.60
2023-01-03T11:07:00.179Z,8.29
2023-01-03T11:09:29.188Z,8.37
2023-01-03T11:12:05.183Z,8.79
2023-01-03T11:14:31.617Z,8.81
2023-01-03T11:17:00.324Z,8.65
2023-01-03T11:19:28.930Z,8.61
2023-01-03T11:22:04.922Z,8.07
2023-01-03T11:24:49.282Z,8.49
2023-01-03T11:27:23.245Z,8.40
2023-01-03T11:30:06.224Z,8.31
2023-01-03T11:32:46.289Z,8.64
2023-01-03T11:35:39.348Z,8.63
2023-01-03T11:38:21.597Z,8.34
2023-01-03T11:40:56.486Z,8.41
2023-01-03T11:43:40.419Z,8.75
2023-01-03T11:46:37.799Z,9.21
2023-01-03T11:49:20.706Z,8.85
2023-01-03T11:51:57.768Z,8.47
2023-01-03T11:54:54.309Z,9.10
2023-01-03T11:57:32.123Z,9.39
2023-01-03T12:00:05.288Z,9.26
2023-01-03T12:03:06.628Z,9.15
2023-01-03T12:05:42.421Z,9.59
2023-01-03T12:08:33.103Z,9.36
2023-01-03T12:11:06.127Z,9.01
2023-01-03T12:13:37.111Z,8.70
2023-01-03T12:16:08.182Z,8.65
2023-01-03T12:18:44.024Z,9.10
2023-01-03T12:21:15.991Z,9.33
2023-01-03T12:23:48.221Z,9.30
2023-01-03T12:26:16.364Z,9.46
2023-01-03T12:28:48.834Z,9.72
2023-01-03T12:31:31.092Z,9.67
2023-01-03T12:34:09.013Z,10.15
2023-01-03T12:36:41.985Z,10.17
2023-01-03T12:39:30.929Z,10.07
2023-01-03T12:42:08.417Z,10.29
2023-01-03T12:44:39.969Z,10.46
2023-01-03T12:47:17.745Z,10.19
2023-01-03T12:49:51.899Z,9.62
2023-01-03T12:52:21.314Z,10.48
2023-01-03T12:54:54.786Z,10.10
2023-01-03T12:57:44.392Z,10.36
2023-01-03T13:00:23.520Z,10.66
2023-01-03T13:02:54.087Z,10.42
2023-01-03T13:05:27.869Z,9.98
2023-01-03T13:08:05.104Z,10.68
2023-01-03T13:10:37.909Z,9.90
2023-01-03T13:13:06.141Z,9.57
2023-01-03T13:15:37.290Z,9.95
2023-01-03T13:18:44.167Z,9.82
2023-01-03T13:21:50.142Z,10.37
2023-01-03T13:24:41.445Z,10.32
2023-01-03T13:27:34.092Z,10.08
2023-01-03T13:30:04.614Z,10.31
2023-01-03T13:32:37.865Z,10.53
2023-01-03T13:35:19.147Z,9.63
2023-01-03T13:37:47.529Z,9.92
2023-01-03T13:40:39.287Z,9.41
2023-01-03T13:43:18.322Z,10.00
2023-01-03T13:45:52.584Z,10.35
2023-01-03T13:48:24.298Z,10.23
2023-01-03T13:51:06.941Z,10.15
2023-01-03T13:53:37.720Z,10.33
2023-01-03T13:56:21.551Z,10.24
2023-01-03T13:58:51.301Z,10.10
2023-01-03T14:01:29.278Z,9.95
2023-01-03T14:04:28.156Z,10.30
2023-01-03T14:07:10.492Z,10.42
2023-01-03T14:10:01.492Z,10.05
2023-01-03T14:12:49.261Z,10.56
2023-01-03T14:15:26.053Z,10.25
2023-01-03T14:17:58.767Z,10.27
2023-01-03T14:20:29.102Z,10.02
2023-01-03T14:23:00.076Z,10.22
2023-01-03T14:25:32.891Z,10.08
2023-01-03T14:28:00.223Z,10.27
2023-01-03T14:30:30.474Z,10.32
2023-01-03T14:32:58.649Z,9.77
2023-01-03T14:35:33.044Z,9.94
2023-01-03T14:38:04.698Z,10.33
2023-01-03T14:40:33.444Z,9.69
2023-01-03T14:43:03.771Z,10.11
2023-01-03T14:45:30.165Z,10.00
2023-01-03T14:47:58.153Z,9.88
2023-01-03T14:50:27.716Z,10.04
2023-01-03T14:52:56.421Z,10.30
2023-01-03T14:55:27.103Z,9.80
2023-01-03T14:57:54.873Z,10.17
2023-01-03T15:00:31.871Z,9.99
2023-01-03T15:03:01.884Z,10.08
2023-01-03T15:05:30.872Z,10.04
2023-01-03T15:08:08.225Z,9.98
2023-01-03T15:10:43.317Z,10.13
2023-01-03T15:13:18.588Z,10.38
2023-01-03T15:15:45.148Z,10.27
2023-01-03T15:18:18.714Z,10.05
2023-01-03T15:20:51.530Z,10.34
2023-01-03T15:23:28.054Z,10.15
2023-01-03T15:25:54.604Z,10.59
2023-01-03T15:28:26.013Z,9.53
2023-01-03T15:30:54.163Z,9.78
2023-01-03T15:33:27.812Z,10.19
2023-01-03T15:35:54.542Z,10.48
2023-01-03T15:38:30.376Z,10.06
2023-01-03T15:40:56.848Z,9.75
2023-01-03T15:43:32.128Z,9.90
2023-01-03T15:46:02.251Z,9.97
2023-01-03T15:48:32.124Z,10.10
2023-01-03T15:50:58.537Z,10.28
2023-01-03T15:53:27.834Z,9.99
2023-01-03T15:55:59.405Z,9.75
2023-01-03T15:58:27.924Z,10.40
2023-01-03T16:00:54.628Z,9.91
2023-01-03T16:03:23.646Z,10.10
2023-01-03T16:05:51.405Z,9.81
2023-01-03T16:08:25.167Z,9.84
2023-01-03T16:10:51.624Z,10.29
2023-01-03T16:13:18.636Z,10.15
2023-01-03T16:15:45.483Z,10.47
2023-01-03T16:18:13.460Z,9.72
2023-01-03T16:20:40.180Z,9.70
2023-01-03T16:23:21.059Z,10.00
2023-01-03T16:25:47.398Z,9.72
2023-01-03T16:28:13.743Z,10.12
2023-01-03T16:30:40.482Z,10.11
2023-01-03T16:33:12.732Z,10.07
2023-01-03T16:35:39.094Z,9.82
2023-01-03T16:38:05.474Z,9.63
2023-01-03T16:40:33.122Z,9.99
2023-01-03T16:42:59.481Z,10.28
2023-01-03T16:45:25.857Z,10.07
2023-01-03T16:47:52.909Z,10.05
2023-01-03T16:50:20.676Z,9.93
2023-01-03T16:52:50.878Z,9.65
2023-01-03T16:55:22.664Z,9.65
2023-01-03T16:57:54.611Z,9.37
2023-01-03T17:00:24.597Z,9.87
2023-01-03T17:02:51.475Z,9.63
2023-01-03T17:05:18.045Z,9.85
2023-01-03T17:07:47.360Z,10.07
2023-01-03T17:10:25.451Z,10.28
2023-01-03T17:12:53.844Z,9.98
2023-01-03T17:15:20.637Z,9.77
2023-01-03T17:17:47.020Z,9.97
2023-01-03T17:20:14.621Z,10.06
2023-01-03T17:22:46.592Z,9.74
2023-01-03T17:25:12.961Z,9.46
2023-01-03T17:27:39.366Z,9.73
2023-01-03T17:30:08.308Z,9.83
2023-01-03T17:32:35.893Z,9.48
2023-01-03T17:35:02.335Z,9.95
2023-01-03T17:37:28.701Z,9.34
2023-01-03T17:39:57.748Z,9.14
2023-01-03T17:42:26.454Z,9.50
2023-01-03T17:44:55.610Z,9.18
2023-01-03T17:47:23.564Z,9.23
2023-01-03T17:49:49.959Z,9.24
2023-01-03T17:52:23.220Z,9.01
2023-01-03T17:54:49.832Z,9.02
2023-01-03T17:57:16.205Z,9.04
2023-01-03T17:59:42.583Z,9.18
2023-01-03T18:02:17.413Z,9.47
2023-01-03T18:05:14.710Z,9.06
2023-01-03T18:07:31.826Z,9.07
2023-01-03T18:09:58.219Z,9.12
2023-01-03T18:12:24.774Z,8.90
2023-01-03T18:14:51.279Z,8.99
2023-01-03T18:17:26.614Z,8.81
2023-01-03T18:19:55.084Z,9.03
2023-01-03T18:22:22.331Z,8.83
2023-01-03T18:24:49.232Z,9.53
2023-01-03T18:27:16.301Z,9.06
2023-01-03T18:29:42.952Z,9.07
2023-01-03T18:32:24.834Z,8.91
2023-01-03T18:34:51.239Z,8.86
2023-01-03T18:37:19.341Z,9.16
2023-01-03T18:39:46.387Z,9.35
2023-01-03T18:42:13.347Z,9.40
2023-01-03T18:44:39.731Z,9.30
2023-01-03T18:47:10.633Z,9.61
2023-01-03T18:49:37.029Z,9.76
2023-01-03T18:52:04.089Z,9.12
2023-01-03T18:54:37.133Z,9.33
2023-01-03T18:57:03.791Z,9.35
2023-01-03T18:59:31.150Z,8.67
2023-01-03T19:01:57.677Z,9.03
2023-01-03T19:04:24.167Z,9.01
2023-01-03T19:06:52.755Z,8.70
2023-01-03T19:09:21.801Z,8.74
2023-01-03T19:11:51.129Z,8.95
2023-01-03T19:14:17.561Z,9.21
2023-01-03T19:16:43.971Z,9.09
2023-01-03T19:19:10.860Z,8.93
2023-01-03T19:21:39.669Z,8.87
2023-01-03T19:24:20.324Z,8.76
2023-01-03T19:26:52.553Z,8.81
2023-01-03T19:29:21.744Z,8.73
2023-01-03T19:31:51.524Z,8.85
2023-01-03T19:34:20.669Z,8.81
2023-01-03T19:36:47.597Z,8.56
2023-01-03T19:39:14.905Z,8.82
2023-01-03T19:41:44.563Z,8.69
2023-01-03T19:44:12.718Z,8.75
2023-01-03T19:46:39.171Z,8.14
2023-01-03T19:49:10.233Z,8.46
2023-01-03T19:51:39.397Z,8.28
2023-01-03T19:54:05.835Z,8.32
2023-01-03T19:56:32.277Z,8.33
2023-01-03T19:59:03.086Z,7.93
2023-01-03T20:01:50.509Z,8.52
2023-01-03T20:04:20.164Z,8.38
2023-01-03T20:06:46.614Z,8.06
2023-01-03T20:09:13.035Z,8.30
2023-01-03T20:11:40.528Z,8.31
2023-01-03T20:14:16.087Z,8.01
2023-01-03T20:16:43.920Z,7.72
2023-01-03T20:19:15.716Z,8.13
2023-01-03T20:21:42.432Z,7.86
2023-01-03T20:24:19.538Z,8.06
2023-01-03T20:26:45.925Z,8.12
2023-01-03T20:29:12.308Z,7.80
2023-01-03T20:31:38.772Z,7.81
2023-01-03T20:34:06.529Z,7.96
2023-01-03T20:36:37.727Z,7.97
2023-01-03T20:39:04.316Z,8.09
2023-01-03T20:41:30.722Z,7.97
2023-01-03T20:43:57.110Z,7.84
2023-01-03T20:46:30.503Z,8.05
2023-01-03T20:49:00.596Z,7.91
2023-01-03T20:51:28.312Z,7.82
2023-01-03T20:53:55.607Z,8.02
2023-01-03T20:56:22.791Z,8.05
2023-01-03T20:58:49.202Z,7.87
2023-01-03T21:01:15.733Z,7.76
2023-01-03T21:03:42.312Z,7.93
2023-01-03T21:06:16.943Z,7.78
2023-01-03T21:08:44.667Z,7.75
2023-01-03T21:11:11.039Z,7.92
2023-01-03T21:13:37.571Z,7.64
2023-01-03T21:16:15.387Z,7.85
2023-01-03T21:18:41.877Z,8.11
2023-01-03T21:21:11.399Z,7.83
2023-01-03T21:23:37.767Z,7.45
2023-01-03T21:26:05.593Z,7.40
2023-01-03T21:28:31.971Z,7.27
2023-01-03T21:31:04.658Z,7.78
2023-01-03T21:33:34.334Z,7.70
2023-01-03T21:36:00.692Z,7.28
2023-01-03T21:38:27.051Z,7.23
2023-01-03T21:40:53.464Z,7.17
2023-01-03T21:43:21.161Z,7.18
2023-01-03T21:45:49.543Z,7.46
2023-01-03T21:48:17.908Z,7.56
2023-01-03T21:50:46.389Z,7.78
2023-01-03T21:53:14.151Z,7.47
2023-01-03T21:55:40.742Z,7.78
2023-01-03T21:58:07.300Z,7.39
2023-01-03T22:00:35.087Z,7.71
2023-01-03T22:03:01.612Z,7.31
2023-01-03T22:05:28.564Z,7.35
2023-01-03T22:07:54.897Z,7.76
2023-01-03T22:10:21.777Z,7.37
2023-01-03T22:12:50.938Z,7.59
2023-01-03T22:15:17.629Z,7.33
2023-01-03T22:17:45.597Z,7.72
2023-01-03T22:20:14.033Z,7.74
2023-01-03T22:22:41.774Z,7.57
2023-01-03T22:25:10.268Z,7.69
2023-01-03T22:27:36.751Z,7.67
2023-01-03T22:30:05.542Z,7.69
2023-01-03T22:32:32.110Z,7.61
2023-01-03T22:34:59.873Z,8.05
2023-01-03T22:37:26.661Z,7.83
2023-01-03T22:39:53.161Z,7.50
2023-01-03T22:42:20.025Z,7.62
2023-01-03T22:44:47.013Z,7.78
2023-01-03T22:47:13.699Z,7.98
2023-01-03T22:49:40.067Z,7.97
2023-01-03T22:52:07.808Z,8.13
2023-01-03T22:54:34.801Z,8.04
2023-01-03T22:57:02.299Z,8.06
2023-01-03T22:59:28.805Z,8.23
2023-01-03T23:01:55.321Z,8.07
2023-01-03T23:04:21.826Z,7.84
2023-01-03T23:06:48.508Z,7.85
2023-01-03T23:09:16.262Z,7.92
2023-01-03T23:11:44.075Z,8.10
2023-01-03T23:14:12.378Z,8.15
2023-01-03T23:16:39.205Z,8.51
2023-01-03T23:19:07.644Z,8.60
2023-01-03T23:21:35.016Z,8.32
2023-01-03T23:24:01.702Z,7.76
2023-01-03T23:26:29.710Z,7.85
2023-01-03T23:28:56.896Z,7.83
2023-01-03T23:31:23.371Z,7.86
2023-01-03T23:33:49.845Z,7.86
2023-01-03T23:36:18.163Z,8.04
2023-01-03T23:38:44.547Z,7.67
2023-01-03T23:41:10.949Z,7.52
2023-01-03T23:43:38.681Z,7.72
2023-01-03T23:46:05.841Z,7.47
2023-01-03T23:48:32.899Z,7.51
2023-01-03T23:51:01.795Z,7.91
2023-01-03T23:53:28.165Z,8.14
2023-01-03T23:55:54.725Z,7.54
2023-01-03T23:58:21.102Z,7.83
